createdAt,value
2022-10-09T00:01:29.686Z,16.33
2022-10-09T00:03:58.635Z,14.93
2022-10-09T00:06:32.862Z,16.58
2022-10-09T00:09:04.420Z,20.15
2022-10-09T00:11:34.013Z,18.50
2022-10-09T00:14:06.541Z,18.10
2022-10-09T00:19:05.025Z,15.52
2022-10-09T00:21:34.457Z,16.08
2022-10-09T00:24:04.203Z,16.10
2022-10-09T00:26:32.316Z,14.70
2022-10-09T00:29:00.013Z,12.27
2022-10-09T00:31:27.808Z,14.27
2022-10-09T00:33:55.469Z,15.05
2022-10-09T00:36:25.420Z,17.20
2022-10-09T00:38:54.672Z,19.40
2022-10-09T00:41:31.480Z,19.92
2022-10-09T00:44:01.609Z,20.25
2022-10-09T00:46:35.180Z,18.05
2022-10-09T00:49:18.112Z,19.10
2022-10-09T00:51:48.677Z,18.65
2022-10-09T00:54:22.746Z,22.75
2022-10-09T00:56:51.121Z,20.63
2022-10-09T00:59:19.681Z,22.20
2022-10-09T01:01:47.915Z,20.35
2022-10-09T01:04:15.899Z,20.77
2022-10-09T01:06:59.831Z,22.20
2022-10-09T01:09:41.528Z,18.45
2022-10-09T01:12:08.980Z,17.00
2022-10-09T01:14:44.221Z,18.70
2022-10-09T01:17:24.813Z,19.38
2022-10-09T01:20:25.926Z,18.33
2022-10-09T01:23:18.592Z,16.13
2022-10-09T01:26:11.072Z,19.20
2022-10-09T01:28:47.485Z,16.98
2022-10-09T01:31:17.186Z,16.70
2022-10-09T01:33:46.672Z,17.00
2022-10-09T01:36:16.641Z,14.73
2022-10-09T01:38:45.670Z,21.25
2022-10-09T01:41:13.573Z,15.35
2022-10-09T01:43:41.688Z,13.40
2022-10-09T01:46:29.761Z,14.40
2022-10-09T01:49:03.459Z,16.40
2022-10-09T01:51:40.425Z,16.27
2022-10-09T01:54:12.041Z,14.68
2022-10-09T01:56:40.135Z,15.20
2022-10-09T01:59:15.822Z,18.52
2022-10-09T02:01:46.272Z,17.17
2022-10-09T02:04:16.884Z,20.60
2022-10-09T02:06:47.373Z,17.70
2022-10-09T02:09:18.219Z,23.67
2022-10-09T02:11:51.626Z,19.75
2022-10-09T02:14:19.993Z,18.05
2022-10-09T02:16:54.966Z,17.90
2022-10-09T02:19:31.677Z,19.02
2022-10-09T02:22:13.161Z,18.02
2022-10-09T02:24:42.449Z,16.38
2022-10-09T02:27:12.593Z,21.25
2022-10-09T02:29:42.931Z,26.63
2022-10-09T02:32:11.520Z,20.60
2022-10-09T02:34:40.672Z,17.67
2022-10-09T02:37:08.784Z,19.25
2022-10-09T02:39:36.458Z,15.15
2022-10-09T02:42:04.925Z,13.10
2022-10-09T02:44:32.699Z,15.98
2022-10-09T02:47:00.125Z,16.52
2022-10-09T02:49:28.049Z,19.10
2022-10-09T02:51:55.577Z,17.13
2022-10-09T02:54:23.010Z,13.43
2022-10-09T02:56:50.489Z,16.27
2022-10-09T02:59:18.197Z,14.98
2022-10-09T03:01:46.804Z,16.58
2022-10-09T03:04:14.470Z,15.23
2022-10-09T03:06:42.184Z,14.93
2022-10-09T03:09:09.757Z,15.88
2022-10-09T03:11:37.204Z,14.73
2022-10-09T03:14:05.588Z,21.77
2022-10-09T03:16:33.172Z,19.40
2022-10-09T03:19:00.769Z,16.48
2022-10-09T03:21:28.915Z,19.58
2022-10-09T03:23:56.557Z,16.17
2022-10-09T03:26:27.081Z,15.70
2022-10-09T03:28:55.772Z,17.02
2022-10-09T03:34:14.227Z,18.48
2022-10-09T03:36:42.411Z,15.65
2022-10-09T03:39:10.128Z,14.00
2022-10-09T03:41:38.015Z,18.60
2022-10-09T03:44:05.640Z,15.05
2022-10-09T03:46:33.289Z,24.23
2022-10-09T03:49:00.947Z,28.15
2022-10-09T03:51:28.982Z,19.48
2022-10-09T03:53:56.469Z,21.50
2022-10-09T03:56:24.295Z,19.75
2022-10-09T03:58:51.822Z,22.83
2022-10-09T04:01:19.451Z,28.23
2022-10-09T04:03:47.114Z,22.65
2022-10-09T04:06:15.096Z,22.25
2022-10-09T04:08:43.140Z,24.75
2022-10-09T04:11:10.649Z,27.05
2022-10-09T04:13:38.669Z,21.40
2022-10-09T04:16:09.475Z,24.67
2022-10-09T04:18:36.980Z,23.13
2022-10-09T04:21:04.466Z,23.85
2022-10-09T04:23:32.412Z,23.52
2022-10-09T04:26:00.400Z,20.42
2022-10-09T04:28:29.110Z,29.33
2022-10-09T04:30:57.821Z,24.00
2022-10-09T04:33:26.939Z,21.92
2022-10-09T04:35:55.815Z,15.50
2022-10-09T04:38:24.982Z,15.13
2022-10-09T04:41:00.487Z,12.98
2022-10-09T04:43:28.774Z,15.13
2022-10-09T04:45:56.671Z,14.05
2022-10-09T04:48:24.676Z,10.10
2022-10-09T04:50:52.171Z,12.93
2022-10-09T04:53:19.790Z,12.00
2022-10-09T04:55:47.353Z,12.60
2022-10-09T04:58:15.085Z,12.63
2022-10-09T05:00:44.812Z,16.27
2022-10-09T05:03:13.099Z,13.50
2022-10-09T05:05:41.809Z,17.20
2022-10-09T05:08:09.736Z,15.18
2022-10-09T05:10:38.235Z,15.48
2022-10-09T05:13:05.888Z,13.48
2022-10-09T05:15:37.673Z,13.63
2022-10-09T05:18:05.444Z,12.20
2022-10-09T05:20:32.994Z,16.52
2022-10-09T05:23:00.702Z,15.23
2022-10-09T05:25:28.232Z,16.30
2022-10-09T05:27:56.350Z,13.18
2022-10-09T05:30:23.932Z,16.38
2022-10-09T05:32:52.201Z,15.20
2022-10-09T05:35:19.788Z,12.27
2022-10-09T05:37:47.530Z,12.60
2022-10-09T05:40:15.128Z,13.35
2022-10-09T05:42:42.588Z,12.00
2022-10-09T05:45:11.471Z,12.88
2022-10-09T05:47:39.288Z,11.80
2022-10-09T05:50:07.333Z,13.93
2022-10-09T05:52:35.811Z,12.88
2022-10-09T05:55:03.830Z,14.37
2022-10-09T05:57:31.704Z,12.07
2022-10-09T05:59:59.184Z,14.55
2022-10-09T06:02:28.722Z,13.07
2022-10-09T06:04:56.286Z,13.07
2022-10-09T06:07:23.919Z,13.07
2022-10-09T06:09:51.820Z,14.88
2022-10-09T06:12:20.017Z,10.80
2022-10-09T06:14:49.583Z,11.88
2022-10-09T06:17:17.055Z,15.52
2022-10-09T06:19:45.815Z,13.52
2022-10-09T06:22:13.700Z,14.73
2022-10-09T06:24:41.176Z,16.75
2022-10-09T06:27:09.122Z,12.77
2022-10-09T06:29:36.994Z,14.02
2022-10-09T06:32:04.589Z,18.58
2022-10-09T06:34:32.408Z,18.35
2022-10-09T06:36:59.977Z,19.30
2022-10-09T06:39:27.492Z,14.35
2022-10-09T06:41:54.986Z,16.88
2022-10-09T06:44:41.769Z,16.45
2022-10-09T06:47:09.271Z,13.10
2022-10-09T06:49:36.781Z,10.93
2022-10-09T06:52:04.433Z,13.15
2022-10-09T06:54:33.491Z,13.15
2022-10-09T06:57:01.199Z,12.10
2022-10-09T06:59:29.671Z,11.07
2022-10-09T07:01:57.287Z,10.70
2022-10-09T07:04:24.758Z,14.45
2022-10-09T07:06:52.283Z,11.82
2022-10-09T07:09:19.817Z,9.65
2022-10-09T07:11:49.381Z,15.07
2022-10-09T07:14:17.570Z,12.80
2022-10-09T07:16:47.532Z,12.10
2022-10-09T07:19:17.762Z,42.65
2022-10-09T07:24:16.883Z,9.30
2022-10-09T07:26:47.175Z,8.43
2022-10-09T07:29:16.849Z,9.90
2022-10-09T07:31:45.050Z,11.57
2022-10-09T07:34:12.689Z,15.00
2022-10-09T07:36:40.328Z,12.70
2022-10-09T07:39:08.607Z,12.07
2022-10-09T07:41:36.757Z,14.07
2022-10-09T07:44:05.392Z,12.35
2022-10-09T07:46:34.356Z,11.50
2022-10-09T07:49:03.170Z,10.60
2022-10-09T07:51:32.030Z,18.17
2022-10-09T07:54:01.994Z,11.02
2022-10-09T07:56:35.648Z,9.00
2022-10-09T07:59:05.813Z,13.32
2022-10-09T08:01:35.269Z,14.32
2022-10-09T08:04:04.135Z,45.85
2022-10-09T08:06:32.311Z,14.57
2022-10-09T08:09:01.505Z,9.27
2022-10-09T08:11:30.498Z,9.98
2022-10-09T08:14:01.626Z,10.93
2022-10-09T08:16:31.560Z,11.82
2022-10-09T08:19:01.917Z,9.10
2022-10-09T08:21:33.011Z,12.02
2022-10-09T08:24:00.808Z,8.80
2022-10-09T08:26:30.082Z,12.05
2022-10-09T08:29:05.354Z,13.43
2022-10-09T08:31:33.158Z,7.68
2022-10-09T08:34:02.946Z,11.02
2022-10-09T08:36:31.179Z,6.72
2022-10-09T08:39:00.745Z,12.40
2022-10-09T08:41:44.548Z,8.47
2022-10-09T08:44:17.257Z,10.10
2022-10-09T08:47:14.305Z,10.85
2022-10-09T08:49:51.021Z,7.60
2022-10-09T08:52:38.701Z,11.35
2022-10-09T08:55:26.405Z,14.30
2022-10-09T08:57:56.382Z,10.63
2022-10-09T09:00:28.290Z,10.48
2022-10-09T09:03:32.965Z,14.27
2022-10-09T09:06:10.867Z,11.48
2022-10-09T09:09:02.003Z,6.72
2022-10-09T09:11:48.303Z,8.85
2022-10-09T09:14:53.945Z,11.77
2022-10-09T09:17:34.645Z,8.68
2022-10-09T09:20:20.868Z,13.18
2022-10-09T09:22:50.528Z,10.88
2022-10-09T09:25:25.484Z,10.82
2022-10-09T09:27:57.275Z,17.85
2022-10-09T09:30:31.287Z,9.98
2022-10-09T09:33:19.516Z,11.77
2022-10-09T09:36:02.134Z,9.23
2022-10-09T09:38:30.631Z,9.32
2022-10-09T09:40:58.513Z,15.05
2022-10-09T09:43:27.160Z,8.43
2022-10-09T09:45:57.449Z,7.60
2022-10-09T09:48:28.476Z,9.40
2022-10-09T09:51:16.173Z,29.13
2022-10-09T09:53:48.281Z,19.02
2022-10-09T09:56:17.064Z,11.32
2022-10-09T09:58:47.240Z,10.95
2022-10-09T10:03:53.356Z,10.85
2022-10-09T10:06:28.920Z,11.10
2022-10-09T10:09:05.064Z,9.45
2022-10-09T10:11:44.922Z,20.60
2022-10-09T10:14:15.631Z,8.77
2022-10-09T10:16:44.430Z,8.20
2022-10-09T10:19:24.040Z,8.73
2022-10-09T10:21:57.621Z,13.20
2022-10-09T10:24:32.905Z,13.55
2022-10-09T10:27:07.532Z,6.57
2022-10-09T10:29:42.531Z,7.13
2022-10-09T10:32:17.508Z,11.93
2022-10-09T10:34:53.794Z,12.20
2022-10-09T10:37:30.876Z,12.80
2022-10-09T10:40:14.687Z,8.82
2022-10-09T10:43:09.427Z,7.60
2022-10-09T10:45:48.676Z,7.85
2022-10-09T10:48:23.492Z,9.70
2022-10-09T10:51:06.756Z,10.30
2022-10-09T10:53:57.328Z,11.05
2022-10-09T10:56:31.090Z,8.68
2022-10-09T10:59:37.767Z,7.10
2022-10-09T11:02:32.013Z,7.10
2022-10-09T11:05:23.091Z,13.88
2022-10-09T11:08:14.665Z,5.95
2022-10-09T11:11:05.126Z,17.05
2022-10-09T11:13:49.357Z,15.73
2022-10-09T11:16:19.558Z,7.97
2022-10-09T11:19:05.443Z,8.15
2022-10-09T11:21:53.868Z,9.20
2022-10-09T11:24:21.306Z,6.85
2022-10-09T11:27:06.749Z,14.50
2022-10-09T11:29:42.935Z,18.35
2022-10-09T11:32:32.383Z,9.75
2022-10-09T11:35:15.855Z,6.32
2022-10-09T11:37:47.843Z,12.20
2022-10-09T11:40:22.933Z,9.98
2022-10-09T11:43:22.280Z,5.93
2022-10-09T11:48:35.475Z,7.90
2022-10-09T11:51:25.424Z,9.13
2022-10-09T11:53:53.665Z,7.20
2022-10-09T11:56:24.505Z,9.18
2022-10-09T11:59:04.802Z,10.15
2022-10-09T12:04:13.447Z,9.55
2022-10-09T12:06:51.859Z,10.95
2022-10-09T12:09:35.438Z,13.68
2022-10-09T12:12:07.965Z,7.68
2022-10-09T12:14:38.213Z,9.90
2022-10-09T12:17:23.858Z,9.40
2022-10-09T12:20:01.409Z,9.70
2022-10-09T12:22:40.619Z,8.32
2022-10-09T12:25:21.614Z,9.18
2022-10-09T12:27:54.923Z,8.18
2022-10-09T12:30:29.220Z,6.03
2022-10-09T12:33:07.941Z,6.95
2022-10-09T12:35:39.386Z,10.45
2022-10-09T12:38:27.527Z,14.43
2022-10-09T12:40:57.649Z,10.70
2022-10-09T12:43:26.597Z,10.65
2022-10-09T12:45:54.888Z,9.07
2022-10-09T12:48:27.781Z,10.15
2022-10-09T12:50:55.540Z,8.57
2022-10-09T12:53:28.468Z,10.87
2022-10-09T12:56:00.205Z,11.80
2022-10-09T12:58:31.875Z,11.70
2022-10-09T13:01:05.022Z,9.90
2022-10-09T13:03:32.702Z,9.20
2022-10-09T13:06:01.033Z,10.45
2022-10-09T13:08:35.241Z,14.95
2022-10-09T13:11:13.317Z,9.73
2022-10-09T13:13:42.230Z,9.50
2022-10-09T13:16:10.831Z,96.28
2022-10-09T13:18:40.717Z,20.85
2022-10-09T13:21:17.948Z,13.15
2022-10-09T13:23:46.017Z,11.57
2022-10-09T13:26:34.429Z,9.27
2022-10-09T13:29:04.978Z,9.00
2022-10-09T13:31:33.936Z,9.50
2022-10-09T13:34:11.621Z,6.87
2022-10-09T13:36:39.453Z,8.70
2022-10-09T13:39:10.883Z,10.40
2022-10-09T13:41:38.393Z,10.82
2022-10-09T13:44:06.108Z,9.63
2022-10-09T13:46:33.680Z,10.75
2022-10-09T13:49:01.227Z,9.25
2022-10-09T13:51:29.541Z,12.25
2022-10-09T13:53:56.980Z,16.02
2022-10-09T13:56:24.779Z,10.77
2022-10-09T13:58:52.277Z,10.30
2022-10-09T14:01:20.233Z,12.23
2022-10-09T14:03:47.797Z,10.38
2022-10-09T14:06:18.962Z,14.10
2022-10-09T14:08:50.192Z,15.50
2022-10-09T14:11:17.781Z,13.10
2022-10-09T14:14:05.147Z,13.98
2022-10-09T14:16:35.047Z,11.65
2022-10-09T14:19:05.436Z,11.68
2022-10-09T14:21:34.445Z,12.52
2022-10-09T14:24:03.374Z,13.60
2022-10-09T14:26:31.346Z,16.95
2022-10-09T14:29:00.986Z,16.25
2022-10-09T14:31:29.070Z,15.25
2022-10-09T14:33:59.809Z,19.50
2022-10-09T14:36:28.185Z,13.40
2022-10-09T14:38:56.172Z,17.38
2022-10-09T14:41:23.772Z,20.13
2022-10-09T14:43:56.963Z,17.05
2022-10-09T14:46:24.663Z,23.88
2022-10-09T14:48:55.221Z,15.48
2022-10-09T14:51:26.239Z,22.13
2022-10-09T14:54:00.462Z,21.42
2022-10-09T14:56:28.641Z,22.70
2022-10-09T14:58:58.006Z,25.05
2022-10-09T15:01:26.465Z,19.15
2022-10-09T15:03:54.697Z,21.73
2022-10-09T15:06:25.247Z,24.67
2022-10-09T15:08:57.158Z,24.63
2022-10-09T15:11:27.937Z,25.60
2022-10-09T15:13:56.836Z,22.63
2022-10-09T15:16:26.637Z,22.27
2022-10-09T15:18:55.930Z,29.52
2022-10-09T15:21:26.225Z,24.67
2022-10-09T15:23:58.579Z,25.35
2022-10-09T15:26:28.189Z,25.23
2022-10-09T15:28:56.034Z,29.00
2022-10-09T15:31:26.805Z,26.55
2022-10-09T15:33:55.989Z,31.13
2022-10-09T15:36:25.689Z,29.95
2022-10-09T15:38:53.902Z,31.33
2022-10-09T15:41:21.596Z,31.65
2022-10-09T15:43:50.582Z,30.73
2022-10-09T15:46:18.739Z,29.80
2022-10-09T15:48:47.896Z,28.33
2022-10-09T15:51:15.876Z,37.60
2022-10-09T15:53:47.200Z,34.60
2022-10-09T15:56:20.282Z,31.23
2022-10-09T15:58:48.172Z,34.58
2022-10-09T16:01:17.552Z,38.80
2022-10-09T16:03:45.372Z,43.25
2022-10-09T16:06:17.058Z,34.20
2022-10-09T16:08:47.161Z,41.88
2022-10-09T16:11:19.163Z,52.57
2022-10-09T16:13:49.516Z,40.17
2022-10-09T16:16:24.576Z,42.30
2022-10-09T16:18:52.318Z,39.85
2022-10-09T16:21:22.631Z,36.85
2022-10-09T16:23:53.295Z,40.13
2022-10-09T16:26:23.486Z,37.50
2022-10-09T16:28:52.440Z,39.78
2022-10-09T16:31:30.360Z,39.20
2022-10-09T16:33:59.058Z,41.58
2022-10-09T16:36:27.532Z,40.90
2022-10-09T16:38:56.560Z,42.72
2022-10-09T16:41:25.004Z,36.47
2022-10-09T16:43:55.264Z,32.63
2022-10-09T16:46:24.262Z,27.00
2022-10-09T16:48:53.898Z,25.05
2022-10-09T16:51:24.992Z,23.30
2022-10-09T16:53:55.000Z,27.80
2022-10-09T16:56:25.537Z,27.58
2022-10-09T16:58:59.196Z,24.55
2022-10-09T17:01:28.328Z,26.67
2022-10-09T17:03:57.305Z,25.17
2022-10-09T17:06:26.178Z,28.25
2022-10-09T17:08:58.582Z,25.63
2022-10-09T17:11:28.270Z,22.80
2022-10-09T17:13:57.050Z,26.38
2022-10-09T17:16:28.172Z,22.07
2022-10-09T17:18:56.107Z,24.05
2022-10-09T17:21:26.718Z,29.67
2022-10-09T17:23:59.330Z,27.02
2022-10-09T17:26:28.645Z,28.30
2022-10-09T17:28:58.387Z,27.38
2022-10-09T17:31:28.484Z,34.10
2022-10-09T17:33:59.713Z,27.80
2022-10-09T17:36:31.344Z,25.88
2022-10-09T17:38:59.413Z,27.20
2022-10-09T17:41:27.408Z,23.45
2022-10-09T17:43:56.624Z,28.23
2022-10-09T17:46:25.552Z,28.35
2022-10-09T17:48:53.573Z,24.95
2022-10-09T17:51:25.382Z,27.45
2022-10-09T17:53:54.318Z,23.48
2022-10-09T17:56:21.856Z,37.75
2022-10-09T17:58:50.236Z,32.80
2022-10-09T18:01:18.184Z,25.70
2022-10-09T18:06:17.894Z,23.88
2022-10-09T18:08:48.624Z,28.60
2022-10-09T18:11:17.348Z,27.58
2022-10-09T18:13:45.583Z,33.23
2022-10-09T18:16:18.514Z,31.85
2022-10-09T18:18:46.582Z,27.60
2022-10-09T18:21:17.071Z,31.73
2022-10-09T18:23:48.077Z,41.10
2022-10-09T18:26:18.136Z,35.67
2022-10-09T18:28:48.629Z,29.77
2022-10-09T18:31:19.808Z,31.80
2022-10-09T18:33:47.865Z,29.30
2022-10-09T18:36:19.839Z,27.05
2022-10-09T18:38:53.695Z,28.50
2022-10-09T18:41:23.176Z,24.40
2022-10-09T18:43:52.384Z,37.97
2022-10-09T18:48:52.195Z,30.60
2022-10-09T18:51:22.737Z,29.55
2022-10-09T18:53:57.191Z,28.15
2022-10-09T18:56:26.276Z,36.40
2022-10-09T18:58:54.183Z,59.72
2022-10-09T19:01:21.699Z,35.10
2022-10-09T19:03:50.314Z,40.72
2022-10-09T19:06:19.372Z,34.15
2022-10-09T19:08:47.729Z,36.70
2022-10-09T19:11:15.932Z,35.17
2022-10-09T19:13:44.021Z,39.28
2022-10-09T19:16:12.955Z,44.08
2022-10-09T19:18:40.573Z,37.95
2022-10-09T19:21:13.454Z,39.05
2022-10-09T19:23:42.302Z,42.60
2022-10-09T19:26:12.084Z,39.83
2022-10-09T19:31:09.031Z,54.67
2022-10-09T19:33:38.135Z,47.03
2022-10-09T19:36:06.773Z,48.25
2022-10-09T19:38:35.215Z,52.70
2022-10-09T19:41:08.480Z,53.80
2022-10-09T19:43:37.235Z,45.88
2022-10-09T19:46:11.130Z,45.47
2022-10-09T19:48:40.799Z,45.78
2022-10-09T19:51:11.850Z,47.33
2022-10-09T19:53:39.704Z,47.00
2022-10-09T19:56:17.587Z,46.67
2022-10-09T19:58:48.077Z,47.55
2022-10-09T20:01:18.492Z,49.25
2022-10-09T20:03:48.223Z,51.08
2022-10-09T20:06:16.249Z,49.30
2022-10-09T20:08:45.236Z,42.72
2022-10-09T20:11:13.970Z,49.77
2022-10-09T20:13:42.787Z,42.33
2022-10-09T20:16:14.452Z,44.80
2022-10-09T20:18:43.615Z,48.83
2022-10-09T20:21:15.121Z,44.72
2022-10-09T20:23:44.415Z,47.45
2022-10-09T20:26:15.268Z,51.25
2022-10-09T20:28:44.046Z,55.60
2022-10-09T20:31:18.116Z,41.72
2022-10-09T20:33:47.801Z,49.30
2022-10-09T20:36:21.724Z,52.25
2022-10-09T20:38:49.864Z,43.95
2022-10-09T20:41:18.022Z,46.55
2022-10-09T20:43:49.379Z,47.35
2022-10-09T20:46:17.705Z,52.75
2022-10-09T20:48:46.108Z,51.05
2022-10-09T20:51:13.992Z,66.22
2022-10-09T20:53:41.741Z,44.72
2022-10-09T20:56:14.957Z,45.97
2022-10-09T20:58:42.934Z,43.45
2022-10-09T21:01:12.199Z,46.83
2022-10-09T21:03:41.206Z,50.63
2022-10-09T21:06:11.492Z,50.38
2022-10-09T21:08:39.484Z,54.40
2022-10-09T21:11:11.656Z,65.32
2022-10-09T21:13:39.855Z,56.90
2022-10-09T21:16:12.103Z,57.40
2022-10-09T21:18:41.629Z,53.15
2022-10-09T21:21:15.896Z,54.50
2022-10-09T21:23:44.408Z,64.10
2022-10-09T21:26:14.356Z,48.33
2022-10-09T21:28:43.262Z,44.67
2022-10-09T21:31:12.896Z,47.05
2022-10-09T21:33:41.619Z,46.33
2022-10-09T21:36:11.778Z,47.45
2022-10-09T21:38:39.512Z,46.90
2022-10-09T21:41:07.089Z,51.50
2022-10-09T21:43:34.787Z,41.80
2022-10-09T21:46:02.265Z,41.25
2022-10-09T21:48:30.974Z,43.15
2022-10-09T21:50:58.482Z,39.97
2022-10-09T21:53:26.116Z,40.58
2022-10-09T21:55:54.234Z,40.92
2022-10-09T21:58:21.706Z,36.05
2022-10-09T22:01:02.016Z,33.40
2022-10-09T22:03:32.162Z,37.40
2022-10-09T22:06:03.376Z,36.53
2022-10-09T22:08:31.005Z,32.55
2022-10-09T22:10:59.813Z,30.75
2022-10-09T22:13:28.555Z,29.95
2022-10-09T22:15:56.052Z,41.88
2022-10-09T22:18:23.612Z,35.75
2022-10-09T22:20:51.860Z,33.55
2022-10-09T22:23:20.855Z,31.50
2022-10-09T22:25:59.818Z,31.53
2022-10-09T22:28:27.677Z,27.95
2022-10-09T22:31:03.647Z,29.80
2022-10-09T22:33:32.044Z,27.13
2022-10-09T22:36:12.043Z,25.70
2022-10-09T22:38:42.118Z,29.88
2022-10-09T22:41:11.309Z,28.65
2022-10-09T22:43:40.532Z,27.05
2022-10-09T22:46:10.325Z,33.10
2022-10-09T22:48:38.897Z,32.20
2022-10-09T22:51:10.172Z,26.38
2022-10-09T22:53:38.693Z,23.13
2022-10-09T22:56:18.359Z,28.00
2022-10-09T22:58:48.349Z,23.55
2022-10-09T23:01:20.569Z,26.48
2022-10-09T23:03:51.235Z,24.45
2022-10-09T23:06:20.031Z,21.33
2022-10-09T23:08:48.562Z,36.25
2022-10-09T23:11:18.201Z,25.40
2022-10-09T23:16:15.137Z,23.45
2022-10-09T23:18:44.150Z,25.92
2022-10-09T23:21:15.090Z,21.65
2022-10-09T23:23:44.446Z,29.27
2022-10-09T23:28:41.829Z,23.45
2022-10-09T23:31:14.582Z,22.30
2022-10-09T23:33:44.363Z,20.25
2022-10-09T23:36:14.979Z,25.13
2022-10-09T23:38:42.981Z,24.20
2022-10-09T23:41:22.592Z,21.52
2022-10-09T23:43:51.229Z,21.35
2022-10-09T23:46:22.302Z,22.35
2022-10-09T23:48:51.746Z,20.55
2022-10-09T23:51:20.718Z,23.50
2022-10-09T23:53:48.480Z,23.27
2022-10-09T23:56:22.126Z,21.10
2022-10-09T23:58:50.835Z,20.77
